Weather at Kuching International Airport

Public forecast

Using degrees Celsius for public forecast. Weather courtesy of forecast.io.

Current aviation weather report (METAR) for Kuching International Airport

Retrieved 2020/11/25 06:30 UTC (1 hour ago):

WBGG 250630Z 32003KT 240V030 9999 SCT020 31/25 Q1007 NOSIG

Aviation forecast (TAF) for Kuching International Airport

Retrieved 2020/11/25 06:18 UTC (1 hour ago):

TAF TAF WBGG 250500Z 2506/2606 VRB03KT 9999 SCT018 TEMPO 2506/2510 26008KT 4000 TSRA FEW015CB